Terminal Aerodrome Forecast
Issued by NWS

Home | Current Version | Previous Version | Text Only | Print | Product List | Glossary On
Versions: 1 2 3 4 5 6 7 8 9 10 11 12 13 14 15 16
360
FTUS43 KILX 250259 AAA
TAFBMI
TAF AMD
KBMI 250259Z 2503/2524 33007KT P6SM VCSH BKN045
     FM250700 16007KT 4SM SHRA BR VCTS OVC025CB
     FM250900 15010KT 3SM SHRA BR VCTS OVC015CB
     FM251200 14012G20KT 3SM SHRA BR OVC010
     FM251800 17013G21KT P6SM VCSH BKN025=

USA.gov is the U.S. government's official web portal to all federal, state and local government web resources and services.